JST651 YSCB-YBCG
Flight info
| Callsign | JST651 |
|---|---|
| Flight time | 1h 11m |
| Altitude | 37000 |
| Route | CULIN Y59 TESAT H252 EKIPU/N0441F360 H252 WLM/N0444F370 H252 BANDA Y43 BERNI |
| Aircraft | A320/M-SDE3FGHIRWY/LB1 |
Departure
| Time | 2026-05-08 02:10 |
|---|---|
| Airport | Canberra Airport (YSCB) |
Arrival
| Time | 2026-05-08 03:21 |
|---|---|
| Airport | Gold Coast Airport (YBCG) |
| Time | Latitude | Longitude | Altitude | Speed | Heading |
|---|---|---|---|---|---|
| 2026-05-08 01:57 | -35.30757 | 149.19137 | 1880 ft | 0 kts | 259° |
| 2026-05-08 02:02 | -35.30754 | 149.19154 | 1879 ft | 3 kts | 259° |
| 2026-05-08 02:02 | -35.30750 | 149.19181 | 1879 ft | 3 kts | 255° |
| 2026-05-08 02:02 | -35.30743 | 149.19207 | 1873 ft | 3 kts | 242° |
| 2026-05-08 02:03 | -35.30731 | 149.19229 | 1874 ft | 3 kts | 218° |
| 2026-05-08 02:03 | -35.30714 | 149.19239 | 1878 ft | 1 kts | 180° |
| 2026-05-08 02:03 | -35.30709 | 149.19239 | 1878 ft | 0 kts | 180° |
| 2026-05-08 02:06 | -35.30714 | 149.19239 | 1878 ft | 4 kts | 180° |
| 2026-05-08 02:07 | -35.30798 | 149.19239 | 1878 ft | 16 kts | 180° |
| 2026-05-08 02:07 | -35.30912 | 149.19239 | 1877 ft | 17 kts | 180° |
| 2026-05-08 02:07 | -35.31033 | 149.19240 | 1879 ft | 18 kts | 179° |
| 2026-05-08 02:07 | -35.31161 | 149.19240 | 1878 ft | 19 kts | 180° |
| 2026-05-08 02:08 | -35.31298 | 149.19240 | 1879 ft | 20 kts | 180° |
| 2026-05-08 02:08 | -35.31433 | 149.19268 | 1879 ft | 20 kts | 144° |
| 2026-05-08 02:08 | -35.31465 | 149.19409 | 1879 ft | 15 kts | 74° |
| 2026-05-08 02:08 | -35.31415 | 149.19446 | 1879 ft | 0 kts | 1° |
| 2026-05-08 02:09 | -35.31385 | 149.19446 | 1880 ft | 25 kts | 0° |
| 2026-05-08 02:09 | -35.30971 | 149.19443 | 1880 ft | 90 kts | 0° |
| 2026-05-08 02:09 | -35.30171 | 149.19442 | 1878 ft | 137 kts | 359° |
| 2026-05-08 02:09 | -35.29147 | 149.19448 | 2257 ft | 148 kts | 356° |
| 2026-05-08 02:10 | -35.28113 | 149.19518 | 2881 ft | 152 kts | 359° |
| 2026-05-08 02:10 | -35.27050 | 149.19643 | 3559 ft | 154 kts | 357° |
| 2026-05-08 02:10 | -35.25936 | 149.19764 | 3834 ft | 175 kts | 358° |
| 2026-05-08 02:10 | -35.24627 | 149.19908 | 4065 ft | 198 kts | 0° |
| 2026-05-08 02:11 | -35.23199 | 149.20077 | 4296 ft | 221 kts | 359° |
| 2026-05-08 02:11 | -35.21607 | 149.20270 | 4709 ft | 238 kts | 0° |
| 2026-05-08 02:11 | -35.19886 | 149.20480 | 5121 ft | 256 kts | 1° |
| 2026-05-08 02:11 | -35.18078 | 149.20704 | 5689 ft | 267 kts | 1° |
| 2026-05-08 02:12 | -35.16148 | 149.20942 | 6085 ft | 290 kts | 1° |
| 2026-05-08 02:12 | -35.14086 | 149.21192 | 6674 ft | 305 kts | 2° |
| 2026-05-08 02:12 | -35.11946 | 149.21482 | 7337 ft | 314 kts | 8° |
| 2026-05-08 02:12 | -35.09846 | 149.22285 | 8120 ft | 319 kts | 21° |
| 2026-05-08 02:13 | -35.07764 | 149.23275 | 8914 ft | 322 kts | 20° |
| 2026-05-08 02:13 | -35.05658 | 149.24267 | 9676 ft | 326 kts | 20° |
| 2026-05-08 02:13 | -35.03523 | 149.25272 | 10374 ft | 333 kts | 20° |
| 2026-05-08 02:13 | -35.01279 | 149.26324 | 10552 ft | 357 kts | 20° |
| 2026-05-08 02:14 | -34.98893 | 149.27437 | 10853 ft | 373 kts | 20° |
| 2026-05-08 02:14 | -34.96443 | 149.28575 | 11445 ft | 380 kts | 19° |
| 2026-05-08 02:14 | -34.93968 | 149.29722 | 12129 ft | 382 kts | 19° |
| 2026-05-08 02:14 | -34.91470 | 149.30881 | 12782 ft | 386 kts | 19° |
| 2026-05-08 02:15 | -34.88943 | 149.32053 | 13404 ft | 390 kts | 18° |
| 2026-05-08 02:15 | -34.86387 | 149.33240 | 14020 ft | 395 kts | 18° |
| 2026-05-08 02:15 | -34.83805 | 149.34439 | 14579 ft | 399 kts | 18° |
| 2026-05-08 02:15 | -34.81206 | 149.35650 | 15133 ft | 402 kts | 18° |
| 2026-05-08 02:16 | -34.78593 | 149.36895 | 15697 ft | 406 kts | 22° |
| 2026-05-08 02:16 | -34.76141 | 149.38545 | 16220 ft | 411 kts | 34° |
| 2026-05-08 02:16 | -34.73941 | 149.40775 | 16762 ft | 414 kts | 46° |
| 2026-05-08 02:16 | -34.72122 | 149.43491 | 17334 ft | 415 kts | 58° |
| 2026-05-08 02:17 | -34.70686 | 149.46584 | 17903 ft | 416 kts | 65° |
| 2026-05-08 02:17 | -34.69349 | 149.49668 | 18441 ft | 419 kts | 64° |
| 2026-05-08 02:17 | -34.67982 | 149.52815 | 18935 ft | 422 kts | 64° |
| 2026-05-08 02:17 | -34.66604 | 149.55977 | 19458 ft | 425 kts | 64° |
| 2026-05-08 02:18 | -34.65214 | 149.59155 | 19965 ft | 427 kts | 64° |
| 2026-05-08 02:18 | -34.63812 | 149.62354 | 20433 ft | 432 kts | 64° |
| 2026-05-08 02:18 | -34.62391 | 149.65594 | 20853 ft | 436 kts | 64° |
| 2026-05-08 02:18 | -34.60964 | 149.68857 | 21323 ft | 438 kts | 64° |
| 2026-05-08 02:19 | -34.59533 | 149.72130 | 21789 ft | 440 kts | 64° |
| 2026-05-08 02:19 | -34.58091 | 149.75422 | 22241 ft | 443 kts | 64° |
| 2026-05-08 02:19 | -34.56637 | 149.78734 | 22696 ft | 445 kts | 64° |
| 2026-05-08 02:19 | -34.55172 | 149.82059 | 23134 ft | 448 kts | 63° |
| 2026-05-08 02:20 | -34.53696 | 149.85397 | 23559 ft | 451 kts | 63° |
| 2026-05-08 02:20 | -34.52210 | 149.88757 | 23981 ft | 453 kts | 64° |
| 2026-05-08 02:20 | -34.50710 | 149.92152 | 24253 ft | 459 kts | 64° |
| 2026-05-08 02:20 | -34.49196 | 149.95579 | 24551 ft | 463 kts | 64° |
| 2026-05-08 02:21 | -34.47667 | 149.99032 | 24880 ft | 466 kts | 64° |
| 2026-05-08 02:21 | -34.46129 | 150.02509 | 25242 ft | 469 kts | 64° |
| 2026-05-08 02:21 | -34.44606 | 150.05956 | 25571 ft | 471 kts | 64° |
| 2026-05-08 02:21 | -34.43054 | 150.09466 | 25893 ft | 474 kts | 64° |
| 2026-05-08 02:22 | -34.41488 | 150.12997 | 26225 ft | 477 kts | 64° |
| 2026-05-08 02:22 | -34.39914 | 150.16539 | 26577 ft | 479 kts | 64° |
| 2026-05-08 02:22 | -34.38326 | 150.20108 | 26877 ft | 484 kts | 64° |
| 2026-05-08 02:22 | -34.36720 | 150.23703 | 27156 ft | 488 kts | 64° |
| 2026-05-08 02:23 | -34.35100 | 150.27322 | 27484 ft | 490 kts | 64° |
| 2026-05-08 02:23 | -34.33473 | 150.30955 | 27768 ft | 492 kts | 64° |
| 2026-05-08 02:23 | -34.31840 | 150.34600 | 28150 ft | 493 kts | 64° |
| 2026-05-08 02:23 | -34.30203 | 150.38259 | 28507 ft | 496 kts | 63° |
| 2026-05-08 02:24 | -34.28559 | 150.41936 | 28843 ft | 498 kts | 63° |
| 2026-05-08 02:24 | -34.26907 | 150.45633 | 29171 ft | 500 kts | 64° |
| 2026-05-08 02:24 | -34.25253 | 150.49355 | 29468 ft | 505 kts | 64° |
| 2026-05-08 02:24 | -34.23590 | 150.53109 | 29707 ft | 509 kts | 64° |
| 2026-05-08 02:25 | -34.22481 | 150.55615 | 29925 ft | 510 kts | 64° |
| 2026-05-08 02:25 | -34.20811 | 150.59387 | 30342 ft | 510 kts | 64° |
| 2026-05-08 02:25 | -34.18572 | 150.64426 | 30832 ft | 508 kts | 63° |
| 2026-05-08 02:25 | -34.17461 | 150.66919 | 31119 ft | 507 kts | 63° |
| 2026-05-08 02:26 | -34.15789 | 150.70656 | 31561 ft | 506 kts | 63° |
| 2026-05-08 02:26 | -34.14112 | 150.74392 | 31973 ft | 505 kts | 62° |
| 2026-05-08 02:26 | -34.11896 | 150.79336 | 32511 ft | 505 kts | 62° |
| 2026-05-08 02:26 | -34.10769 | 150.81855 | 32771 ft | 504 kts | 62° |
| 2026-05-08 02:27 | -34.09104 | 150.85577 | 33180 ft | 504 kts | 62° |
| 2026-05-08 02:27 | -34.07442 | 150.89291 | 33605 ft | 502 kts | 62° |
| 2026-05-08 02:27 | -34.05781 | 150.92989 | 34026 ft | 501 kts | 61° |
| 2026-05-08 02:27 | -34.04121 | 150.96676 | 34384 ft | 499 kts | 60° |
| 2026-05-08 02:28 | -34.02464 | 151.00352 | 34710 ft | 499 kts | 60° |
| 2026-05-08 02:28 | -34.00812 | 151.04018 | 35018 ft | 498 kts | 60° |
| 2026-05-08 02:28 | -33.99159 | 151.07686 | 35330 ft | 498 kts | 60° |
| 2026-05-08 02:28 | -33.97507 | 151.11354 | 35623 ft | 498 kts | 59° |
| 2026-05-08 02:29 | -33.95853 | 151.15012 | 35889 ft | 498 kts | 59° |
| 2026-05-08 02:29 | -33.94058 | 151.18565 | 36157 ft | 495 kts | 51° |
| 2026-05-08 02:29 | -33.91923 | 151.21793 | 36417 ft | 492 kts | 46° |
| 2026-05-08 02:29 | -33.89711 | 151.24946 | 36655 ft | 492 kts | 46° |
| 2026-05-08 02:30 | -33.87532 | 151.28058 | 36866 ft | 493 kts | 46° |
| 2026-05-08 02:30 | -33.85321 | 151.31221 | 37056 ft | 494 kts | 46° |
| 2026-05-08 02:30 | -33.80858 | 151.37604 | 37087 ft | 503 kts | 45° |
| 2026-05-08 02:31 | -33.76341 | 151.44053 | 37083 ft | 505 kts | 45° |
| 2026-05-08 02:31 | -33.71810 | 151.50518 | 37066 ft | 506 kts | 45° |
| 2026-05-08 02:32 | -33.67058 | 151.56693 | 37074 ft | 498 kts | 34° |
| 2026-05-08 02:32 | -33.61337 | 151.61078 | 37073 ft | 481 kts | 16° |
| 2026-05-08 02:33 | -33.55080 | 151.63458 | 37103 ft | 468 kts | 6° |
| 2026-05-08 02:33 | -33.48747 | 151.65368 | 37070 ft | 469 kts | 5° |
| 2026-05-08 02:34 | -33.42467 | 151.67280 | 37078 ft | 469 kts | 5° |
| 2026-05-08 02:34 | -33.36110 | 151.69247 | 37087 ft | 469 kts | 6° |
| 2026-05-08 02:35 | -33.29837 | 151.71220 | 37071 ft | 469 kts | 6° |
| 2026-05-08 02:35 | -33.23502 | 151.73197 | 37089 ft | 475 kts | 6° |
| 2026-05-08 02:36 | -33.17020 | 151.75062 | 37094 ft | 480 kts | 2° |
| 2026-05-08 02:36 | -33.10447 | 151.76476 | 37092 ft | 479 kts | 0° |
| 2026-05-08 02:37 | -33.03871 | 151.77760 | 37103 ft | 478 kts | 1° |
| 2026-05-08 02:37 | -32.97307 | 151.79134 | 37107 ft | 479 kts | 1° |
| 2026-05-08 02:38 | -32.90744 | 151.80587 | 37113 ft | 480 kts | 2° |
| 2026-05-08 02:38 | -32.84185 | 151.82042 | 37098 ft | 479 kts | 1° |
| 2026-05-08 02:39 | -32.77675 | 151.83889 | 37127 ft | 487 kts | 9° |
| 2026-05-08 02:39 | -32.71277 | 151.86327 | 37131 ft | 486 kts | 8° |
| 2026-05-08 02:40 | -32.64836 | 151.88763 | 37134 ft | 485 kts | 8° |
| 2026-05-08 02:40 | -32.58398 | 151.91193 | 37119 ft | 484 kts | 8° |
| 2026-05-08 02:41 | -32.51972 | 151.93616 | 37136 ft | 484 kts | 8° |
| 2026-05-08 02:41 | -32.45547 | 151.96038 | 37135 ft | 484 kts | 8° |
| 2026-05-08 02:42 | -32.39127 | 151.98458 | 37105 ft | 484 kts | 8° |
| 2026-05-08 02:42 | -32.32751 | 152.00861 | 37111 ft | 484 kts | 8° |
| 2026-05-08 02:43 | -32.26327 | 152.03281 | 37113 ft | 484 kts | 8° |
| 2026-05-08 02:43 | -32.19907 | 152.05683 | 37092 ft | 484 kts | 7° |
| 2026-05-08 02:44 | -32.13477 | 152.08081 | 37099 ft | 484 kts | 7° |
| 2026-05-08 02:44 | -32.07053 | 152.10489 | 37107 ft | 485 kts | 8° |
| 2026-05-08 02:45 | -32.00623 | 152.12896 | 37109 ft | 485 kts | 7° |
| 2026-05-08 02:45 | -31.94195 | 152.15290 | 37097 ft | 484 kts | 7° |
| 2026-05-08 02:46 | -31.87763 | 152.17691 | 37109 ft | 485 kts | 7° |
| 2026-05-08 02:46 | -31.81375 | 152.20076 | 37109 ft | 484 kts | 7° |
| 2026-05-08 02:47 | -31.74956 | 152.22456 | 37062 ft | 484 kts | 7° |
| 2026-05-08 02:47 | -31.68533 | 152.24831 | 37105 ft | 483 kts | 7° |
| 2026-05-08 02:48 | -31.62130 | 152.27197 | 37112 ft | 482 kts | 7° |
| 2026-05-08 02:48 | -31.55732 | 152.29563 | 37111 ft | 481 kts | 7° |
| 2026-05-08 02:49 | -31.49346 | 152.31925 | 37088 ft | 481 kts | 7° |
| 2026-05-08 02:49 | -31.42964 | 152.34281 | 37092 ft | 480 kts | 7° |
| 2026-05-08 02:50 | -31.36586 | 152.36624 | 37096 ft | 480 kts | 6° |
| 2026-05-08 02:50 | -31.30208 | 152.38966 | 37054 ft | 480 kts | 6° |
| 2026-05-08 02:51 | -31.23880 | 152.41293 | 37069 ft | 479 kts | 6° |
| 2026-05-08 02:51 | -31.17515 | 152.43629 | 37083 ft | 479 kts | 6° |
| 2026-05-08 02:52 | -31.11156 | 152.45955 | 37088 ft | 479 kts | 6° |
| 2026-05-08 02:52 | -31.04800 | 152.48274 | 37076 ft | 477 kts | 6° |
| 2026-05-08 02:53 | -30.98461 | 152.50584 | 37085 ft | 477 kts | 6° |
| 2026-05-08 02:53 | -30.92136 | 152.52886 | 37110 ft | 476 kts | 5° |
| 2026-05-08 02:54 | -30.85816 | 152.55194 | 37066 ft | 476 kts | 5° |
| 2026-05-08 02:54 | -30.79510 | 152.57506 | 37086 ft | 476 kts | 6° |
| 2026-05-08 02:55 | -30.70157 | 152.61689 | 37086 ft | 483 kts | 10° |
| 2026-05-08 02:56 | -30.63997 | 152.64704 | 37092 ft | 483 kts | 10° |
| 2026-05-08 02:56 | -30.57782 | 152.67649 | 37070 ft | 480 kts | 9° |
| 2026-05-08 02:57 | -30.51589 | 152.70496 | 37079 ft | 479 kts | 9° |
| 2026-05-08 02:57 | -30.45396 | 152.73324 | 37089 ft | 478 kts | 9° |
| 2026-05-08 02:58 | -30.39210 | 152.76160 | 37103 ft | 478 kts | 9° |
| 2026-05-08 02:58 | -30.33033 | 152.79003 | 37090 ft | 477 kts | 9° |
| 2026-05-08 02:59 | -30.26860 | 152.81847 | 37094 ft | 477 kts | 9° |
| 2026-05-08 02:59 | -30.20687 | 152.84687 | 37087 ft | 478 kts | 9° |
| 2026-05-08 03:00 | -30.14501 | 152.87517 | 37056 ft | 477 kts | 8° |
| 2026-05-08 03:00 | -30.08325 | 152.90336 | 37085 ft | 476 kts | 8° |
| 2026-05-08 03:01 | -30.02160 | 152.93150 | 37098 ft | 477 kts | 8° |
| 2026-05-08 03:01 | -29.96038 | 152.95953 | 37097 ft | 476 kts | 8° |
| 2026-05-08 03:02 | -29.89888 | 152.98769 | 37079 ft | 475 kts | 8° |
| 2026-05-08 03:02 | -29.83741 | 153.01564 | 37104 ft | 474 kts | 8° |
| 2026-05-08 03:03 | -29.77602 | 153.04354 | 37110 ft | 474 kts | 8° |
| 2026-05-08 03:03 | -29.71476 | 153.07134 | 37110 ft | 473 kts | 8° |
| 2026-05-08 03:04 | -29.65353 | 153.09908 | 37088 ft | 472 kts | 7° |
| 2026-05-08 03:04 | -29.59241 | 153.12682 | 36983 ft | 470 kts | 7° |
| 2026-05-08 03:04 | -29.56201 | 153.14061 | 36395 ft | 470 kts | 7° |
| 2026-05-08 03:05 | -29.53152 | 153.15434 | 35688 ft | 471 kts | 8° |
| 2026-05-08 03:05 | -29.50093 | 153.16805 | 35008 ft | 473 kts | 8° |
| 2026-05-08 03:05 | -29.47025 | 153.18180 | 34264 ft | 475 kts | 8° |
| 2026-05-08 03:05 | -29.43940 | 153.19569 | 33457 ft | 477 kts | 9° |
| 2026-05-08 03:06 | -29.40843 | 153.20963 | 32608 ft | 479 kts | 9° |
| 2026-05-08 03:06 | -29.37738 | 153.22364 | 31730 ft | 482 kts | 10° |
| 2026-05-08 03:06 | -29.34612 | 153.23772 | 30869 ft | 484 kts | 11° |
| 2026-05-08 03:06 | -29.31469 | 153.25188 | 29978 ft | 486 kts | 12° |
| 2026-05-08 03:07 | -29.28316 | 153.26608 | 28900 ft | 489 kts | 12° |
| 2026-05-08 03:07 | -29.25138 | 153.28038 | 27779 ft | 492 kts | 13° |
| 2026-05-08 03:07 | -29.21936 | 153.29478 | 26663 ft | 495 kts | 14° |
| 2026-05-08 03:07 | -29.18784 | 153.30896 | 25949 ft | 490 kts | 14° |
| 2026-05-08 03:08 | -29.15614 | 153.32324 | 25010 ft | 490 kts | 14° |
| 2026-05-08 03:08 | -29.12427 | 153.33750 | 23971 ft | 493 kts | 15° |
| 2026-05-08 03:08 | -29.09229 | 153.35182 | 22814 ft | 494 kts | 15° |
| 2026-05-08 03:08 | -29.06026 | 153.36619 | 21630 ft | 491 kts | 16° |
| 2026-05-08 03:09 | -29.02895 | 153.38030 | 20497 ft | 475 kts | 16° |
| 2026-05-08 03:09 | -28.99871 | 153.39391 | 19401 ft | 461 kts | 17° |
| 2026-05-08 03:09 | -28.96926 | 153.40710 | 18359 ft | 450 kts | 17° |
| 2026-05-08 03:09 | -28.94030 | 153.41997 | 17181 ft | 443 kts | 17° |
| 2026-05-08 03:10 | -28.91179 | 153.43259 | 16045 ft | 436 kts | 17° |
| 2026-05-08 03:10 | -28.88375 | 153.44501 | 14965 ft | 429 kts | 17° |
| 2026-05-08 03:10 | -28.85617 | 153.45725 | 13911 ft | 422 kts | 17° |
| 2026-05-08 03:10 | -28.82899 | 153.46936 | 12753 ft | 416 kts | 18° |
| 2026-05-08 03:11 | -28.80216 | 153.48132 | 11637 ft | 410 kts | 18° |
| 2026-05-08 03:11 | -28.77571 | 153.49310 | 11168 ft | 408 kts | 18° |
| 2026-05-08 03:11 | -28.74979 | 153.50465 | 10916 ft | 386 kts | 18° |
| 2026-05-08 03:11 | -28.72570 | 153.51542 | 10679 ft | 359 kts | 18° |
| 2026-05-08 03:12 | -28.71062 | 153.52216 | 10523 ft | 345 kts | 18° |
| 2026-05-08 03:12 | -28.68220 | 153.53481 | 10305 ft | 317 kts | 18° |
| 2026-05-08 03:12 | -28.66226 | 153.54366 | 10187 ft | 298 kts | 18° |
| 2026-05-08 03:12 | -28.64348 | 153.55198 | 10067 ft | 281 kts | 17° |
| 2026-05-08 03:13 | -28.62583 | 153.55980 | 9946 ft | 265 kts | 17° |
| 2026-05-08 03:13 | -28.61439 | 153.56487 | 9785 ft | 258 kts | 17° |
| 2026-05-08 03:13 | -28.59779 | 153.57220 | 9406 ft | 255 kts | 17° |
| 2026-05-08 03:13 | -28.58154 | 153.57936 | 9010 ft | 253 kts | 18° |
| 2026-05-08 03:14 | -28.55968 | 153.58898 | 8463 ft | 251 kts | 18° |
| 2026-05-08 03:14 | -28.54894 | 153.59371 | 8194 ft | 250 kts | 18° |
| 2026-05-08 03:14 | -28.53275 | 153.60086 | 7793 ft | 249 kts | 18° |
| 2026-05-08 03:14 | -28.51642 | 153.60787 | 7381 ft | 247 kts | 17° |
| 2026-05-08 03:15 | -28.49918 | 153.61454 | 6797 ft | 283 kts | 17° |
| 2026-05-08 03:15 | -28.48020 | 153.62156 | 6195 ft | 294 kts | 17° |
| 2026-05-08 03:15 | -28.46077 | 153.62871 | 5572 ft | 294 kts | 17° |
| 2026-05-08 03:15 | -28.44138 | 153.63588 | 5039 ft | 289 kts | 17° |
| 2026-05-08 03:16 | -28.42298 | 153.64275 | 4964 ft | 268 kts | 17° |
| 2026-05-08 03:16 | -28.40563 | 153.64721 | 4902 ft | 245 kts | 1° |
| 2026-05-08 03:16 | -28.38899 | 153.64599 | 4780 ft | 238 kts | 345° |
| 2026-05-08 03:16 | -28.37356 | 153.63950 | 4451 ft | 236 kts | 327° |
| 2026-05-08 03:17 | -28.35944 | 153.63012 | 4144 ft | 235 kts | 327° |
| 2026-05-08 03:17 | -28.34531 | 153.62082 | 3839 ft | 235 kts | 327° |
| 2026-05-08 03:17 | -28.33110 | 153.61168 | 3527 ft | 235 kts | 328° |
| 2026-05-08 03:17 | -28.31682 | 153.60259 | 3217 ft | 235 kts | 328° |
| 2026-05-08 03:18 | -28.30259 | 153.59357 | 2899 ft | 234 kts | 329° |
| 2026-05-08 03:18 | -28.28843 | 153.58460 | 2583 ft | 232 kts | 329° |
| 2026-05-08 03:18 | -28.27440 | 153.57571 | 2288 ft | 228 kts | 330° |
| 2026-05-08 03:18 | -28.26089 | 153.56713 | 1986 ft | 217 kts | 329° |
| 2026-05-08 03:19 | -28.24808 | 153.55897 | 1711 ft | 206 kts | 330° |
| 2026-05-08 03:19 | -28.23596 | 153.55126 | 1462 ft | 192 kts | 330° |
| 2026-05-08 03:19 | -28.22479 | 153.54417 | 1217 ft | 174 kts | 330° |
| 2026-05-08 03:19 | -28.21491 | 153.53790 | 985 ft | 153 kts | 330° |
| 2026-05-08 03:20 | -28.20591 | 153.53217 | 784 ft | 145 kts | 331° |
| 2026-05-08 03:20 | -28.19720 | 153.52670 | 585 ft | 141 kts | 332° |
| 2026-05-08 03:20 | -28.18863 | 153.52123 | 408 ft | 141 kts | 332° |
| 2026-05-08 03:20 | -28.18020 | 153.51575 | 221 ft | 139 kts | 333° |
| 2026-05-08 03:21 | -28.17178 | 153.51040 | 48 ft | 138 kts | 333° |
| 2026-05-08 03:21 | -28.16450 | 153.50581 | 27 ft | 98 kts | 331° |
| 2026-05-08 03:21 | -28.16003 | 153.50296 | 29 ft | 54 kts | 331° |
| 2026-05-08 03:21 | -28.15738 | 153.50123 | 26 ft | 22 kts | 331° |
| 2026-05-08 03:22 | -28.15628 | 153.50142 | 27 ft | 18 kts | 60° |
| 2026-05-08 03:22 | -28.15632 | 153.50275 | 30 ft | 19 kts | 136° |
| 2026-05-08 03:22 | -28.15753 | 153.50352 | 30 ft | 21 kts | 151° |
| 2026-05-08 03:22 | -28.15890 | 153.50439 | 25 ft | 24 kts | 150° |
| 2026-05-08 03:23 | -28.16042 | 153.50535 | 31 ft | 26 kts | 150° |
| 2026-05-08 03:23 | -28.16206 | 153.50641 | 25 ft | 28 kts | 150° |
| 2026-05-08 03:23 | -28.16381 | 153.50751 | 28 ft | 27 kts | 152° |
| 2026-05-08 03:23 | -28.16493 | 153.50843 | 26 ft | 16 kts | 108° |
| 2026-05-08 03:24 | -28.16524 | 153.50948 | 28 ft | 16 kts | 149° |
| 2026-05-08 03:24 | -28.16629 | 153.51014 | 29 ft | 19 kts | 150° |
| 2026-05-08 03:24 | -28.16714 | 153.51068 | 28 ft | 3 kts | 151° |
| 2026-05-08 03:24 | -28.16731 | 153.51089 | 28 ft | 4 kts | 105° |
| 2026-05-08 03:25 | -28.16715 | 153.51124 | 29 ft | 6 kts | 60° |
| 2026-05-08 03:25 | -28.16696 | 153.51164 | 29 ft | 3 kts | 61° |
| 2026-05-08 03:25 | -28.16695 | 153.51165 | 29 ft | 0 kts | 61° |